createdAt,value
2022-10-17T00:03:37.990Z,4.40
2022-10-17T00:09:09.711Z,4.40
2022-10-17T00:14:41.557Z,4.45
2022-10-17T00:20:13.362Z,4.60
2022-10-17T00:25:45.151Z,4.65
2022-10-17T00:31:16.643Z,4.75
2022-10-17T00:36:48.931Z,5.00
2022-10-17T00:42:20.653Z,5.10
2022-10-17T00:47:52.198Z,5.15
2022-10-17T00:53:24.184Z,5.15
2022-10-17T00:58:56.112Z,5.20
2022-10-17T01:15:34.007Z,5.50
2022-10-17T01:21:06.007Z,5.55
2022-10-17T01:26:38.202Z,5.60
2022-10-17T01:32:10.491Z,5.75
2022-10-17T01:37:42.588Z,5.80
2022-10-17T01:43:14.255Z,5.90
2022-10-17T01:48:46.303Z,5.95
2022-10-17T01:54:18.456Z,6.10
2022-10-17T01:59:50.181Z,6.10
2022-10-17T02:05:21.917Z,6.20
2022-10-17T02:10:53.795Z,6.25
2022-10-17T02:16:25.505Z,6.40
2022-10-17T02:21:57.442Z,6.50
2022-10-17T02:27:29.235Z,6.60
2022-10-17T02:33:00.948Z,6.60
2022-10-17T02:38:32.945Z,6.60
2022-10-17T02:44:05.297Z,6.70
2022-10-17T02:55:09.675Z,6.95
2022-10-17T03:00:41.478Z,7.05
2022-10-17T03:06:13.145Z,7.15
2022-10-17T03:11:45.106Z,7.25
2022-10-17T03:17:17.428Z,7.30
2022-10-17T03:22:49.454Z,7.30
2022-10-17T03:28:21.106Z,7.45
2022-10-17T03:33:53.074Z,7.45
2022-10-17T03:39:25.021Z,7.60
2022-10-17T03:44:57.666Z,7.75
2022-10-17T03:50:29.338Z,7.80
2022-10-17T03:56:00.946Z,7.90
2022-10-17T04:01:32.959Z,8.00
2022-10-17T04:07:04.448Z,8.05
2022-10-17T04:12:36.509Z,8.10
2022-10-17T04:18:08.410Z,8.35
2022-10-17T04:23:40.517Z,8.40
2022-10-17T04:29:12.688Z,8.50
2022-10-17T04:34:44.419Z,8.65
2022-10-17T04:40:16.987Z,8.75
2022-10-17T04:45:49.182Z,8.95
2022-10-17T04:51:23.315Z,9.05
2022-10-17T04:56:53.542Z,9.15
2022-10-17T05:02:25.948Z,9.25
2022-10-17T05:07:58.126Z,9.30
2022-10-17T05:13:30.357Z,9.35
2022-10-17T05:19:02.362Z,9.50
2022-10-17T05:35:39.187Z,9.95
2022-10-17T05:41:11.444Z,10.05
2022-10-17T05:46:43.352Z,10.05
2022-10-17T05:52:15.017Z,10.20
2022-10-17T05:57:47.135Z,10.30
2022-10-17T06:03:19.262Z,10.35
2022-10-17T06:08:51.301Z,10.40
2022-10-17T06:14:23.405Z,10.50
2022-10-17T06:19:55.325Z,10.70
2022-10-17T06:25:27.686Z,10.70
2022-10-17T06:31:00.022Z,10.75
2022-10-17T06:36:32.146Z,10.85
2022-10-17T06:42:04.548Z,10.90
2022-10-17T06:47:36.442Z,10.95
2022-10-17T06:53:08.625Z,11.10
2022-10-17T06:58:40.542Z,11.20
2022-10-17T07:04:12.316Z,11.20
2022-10-17T07:09:43.868Z,11.30
2022-10-17T07:15:15.755Z,11.45
2022-10-17T07:20:47.633Z,11.50
2022-10-17T07:31:49.396Z,11.65
2022-10-17T07:37:21.702Z,11.70
2022-10-17T07:42:54.031Z,12.05
2022-10-17T07:48:26.103Z,12.20
2022-10-17T07:53:57.799Z,12.20
2022-10-17T07:59:30.200Z,12.25
2022-10-17T08:05:01.982Z,12.40
2022-10-17T08:10:33.817Z,12.70
2022-10-17T08:16:06.087Z,12.80
2022-10-17T08:21:38.458Z,12.85
2022-10-17T08:27:10.722Z,13.10
2022-10-17T08:32:42.782Z,13.25
2022-10-17T08:38:15.257Z,13.75
2022-10-17T08:43:48.058Z,13.75
2022-10-17T08:49:20.000Z,13.90
2022-10-17T08:51:31.815Z,1.97
2022-10-17T08:57:03.826Z,2.46
2022-10-17T09:02:35.690Z,1.64
2022-10-17T09:08:07.283Z,1.71
2022-10-17T09:13:39.097Z,1.37
2022-10-17T09:19:10.921Z,1.47
2022-10-17T09:24:42.950Z,1.68
2022-10-17T09:35:44.616Z,1.63
2022-10-17T09:41:42.923Z,1.47
2022-10-17T09:46:48.319Z,1.51
2022-10-17T09:52:20.127Z,1.55
2022-10-17T09:57:51.711Z,1.73
2022-10-17T10:03:23.950Z,1.68
2022-10-17T10:08:55.963Z,1.57
2022-10-17T10:14:27.640Z,1.53
2022-10-17T10:19:59.761Z,1.44
2022-10-17T10:25:31.203Z,1.58
2022-10-17T10:31:02.532Z,1.50
2022-10-17T10:36:34.341Z,1.55
2022-10-17T10:42:05.930Z,1.65
2022-10-17T10:47:37.814Z,1.75
2022-10-17T10:53:09.675Z,1.90
2022-10-17T11:04:10.776Z,2.10
2022-10-17T11:09:42.683Z,2.20
2022-10-17T11:15:14.565Z,2.25
2022-10-17T11:20:46.371Z,2.40
2022-10-17T11:26:18.415Z,2.65
2022-10-17T11:31:49.742Z,2.65
2022-10-17T11:37:21.594Z,2.70
2022-10-17T11:42:53.591Z,2.75
2022-10-17T11:48:25.136Z,2.95
2022-10-17T11:53:56.911Z,3.05
2022-10-17T11:59:29.864Z,3.10
2022-10-17T12:05:00.651Z,3.15
2022-10-17T12:10:32.339Z,3.15
2022-10-17T12:16:04.017Z,3.35
2022-10-17T12:21:35.662Z,3.40
2022-10-17T12:27:07.426Z,3.55
2022-10-17T12:33:00.320Z,3.70
2022-10-17T12:38:10.900Z,4.05
2022-10-17T12:43:44.802Z,4.05
2022-10-17T12:49:15.289Z,4.10
2022-10-17T12:54:48.109Z,4.10
2022-10-17T13:00:18.623Z,4.20
2022-10-17T13:05:50.450Z,4.25
2022-10-17T13:16:53.684Z,4.50
2022-10-17T13:27:55.441Z,4.80
2022-10-17T13:33:27.109Z,4.90
2022-10-17T13:41:36.253Z,1.97
2022-10-17T13:46:50.925Z,1.97
2022-10-17T13:52:22.866Z,2.62
2022-10-17T14:03:24.004Z,2.55
2022-10-17T14:08:56.314Z,2.12
2022-10-17T14:14:27.945Z,1.96
2022-10-17T14:20:16.424Z,1.84
2022-10-17T14:25:32.054Z,1.96
2022-10-17T14:31:03.770Z,1.96
2022-10-17T14:36:35.786Z,2.05
2022-10-17T14:42:07.851Z,2.12
2022-10-17T14:47:43.701Z,2.11
2022-10-17T14:53:11.363Z,2.17
2022-10-17T14:58:42.929Z,2.09
2022-10-17T15:04:14.778Z,2.08
2022-10-17T15:09:46.742Z,2.02
2022-10-17T15:20:55.220Z,1.91
2022-10-17T15:26:20.406Z,1.95
2022-10-17T15:31:52.348Z,1.95
2022-10-17T15:37:24.136Z,2.05
2022-10-17T15:42:55.748Z,2.15
2022-10-17T15:48:27.667Z,2.35
2022-10-17T15:53:59.522Z,2.35
2022-10-17T15:59:31.520Z,2.50
2022-10-17T16:05:04.364Z,2.50
2022-10-17T16:10:35.953Z,2.60
2022-10-17T16:16:07.877Z,2.75
2022-10-17T16:27:09.412Z,2.95
2022-10-17T16:32:41.093Z,3.10
2022-10-17T16:43:44.027Z,3.30
2022-10-17T16:49:15.724Z,3.45
2022-10-17T16:54:47.668Z,3.50
2022-10-17T17:05:49.426Z,3.80
2022-10-17T17:11:21.296Z,3.95
2022-10-17T17:16:53.530Z,4.00
2022-10-17T17:22:25.472Z,4.00
2022-10-17T17:27:57.509Z,4.15
2022-10-17T17:33:29.237Z,4.20
2022-10-17T17:39:01.057Z,4.20
2022-10-17T17:44:32.656Z,4.20
2022-10-17T17:50:04.724Z,4.25
2022-10-17T17:55:36.946Z,4.35
2022-10-17T18:01:08.655Z,4.55
2022-10-17T18:06:40.536Z,4.70
2022-10-17T18:12:12.653Z,4.90
2022-10-17T18:17:44.853Z,4.95
2022-10-17T18:23:16.550Z,5.15
2022-10-17T18:28:48.598Z,5.15
2022-10-17T18:34:20.602Z,5.20
2022-10-17T18:39:52.336Z,5.25
2022-10-17T18:45:24.244Z,5.40
2022-10-17T18:50:55.805Z,5.50
2022-10-17T18:56:27.669Z,5.55
2022-10-17T19:01:59.829Z,5.60
2022-10-17T19:07:31.892Z,5.60
2022-10-17T19:13:04.095Z,5.65
2022-10-17T19:18:36.361Z,5.75
2022-10-17T19:24:08.529Z,5.80
2022-10-17T19:29:40.768Z,5.85
2022-10-17T19:35:12.834Z,5.90
2022-10-17T19:40:44.875Z,5.95
2022-10-17T19:46:16.465Z,6.10
2022-10-17T19:51:48.425Z,6.20
2022-10-17T20:02:50.112Z,6.40
2022-10-17T20:08:22.051Z,6.40
2022-10-17T20:13:53.834Z,6.50
2022-10-17T20:19:25.469Z,6.55
2022-10-17T20:24:57.287Z,6.65
2022-10-17T20:30:29.466Z,6.80
2022-10-17T20:36:01.238Z,6.80
2022-10-17T20:41:33.558Z,6.95
2022-10-17T20:47:11.897Z,7.00
2022-10-17T20:52:37.523Z,7.10
2022-10-17T20:58:09.625Z,7.15
2022-10-17T21:03:44.053Z,7.30
2022-10-17T21:09:12.893Z,7.55
2022-10-17T21:14:44.875Z,7.60
2022-10-17T21:20:16.681Z,7.65
2022-10-17T21:25:48.478Z,7.75
2022-10-17T21:31:20.061Z,7.95
2022-10-17T21:36:51.893Z,8.00
2022-10-17T21:42:23.558Z,8.05
2022-10-17T21:48:12.206Z,8.20
2022-10-17T21:53:27.077Z,8.30
2022-10-17T21:58:58.887Z,8.30
2022-10-17T22:04:30.757Z,8.70
2022-10-17T22:10:02.842Z,8.70
2022-10-17T22:15:35.258Z,8.80
2022-10-17T22:21:07.115Z,8.90
2022-10-17T22:26:38.982Z,8.95
2022-10-17T22:32:10.880Z,8.95
2022-10-17T22:37:42.696Z,9.00
2022-10-17T22:43:14.484Z,9.05
2022-10-17T22:48:46.128Z,9.10
2022-10-17T22:54:17.881Z,9.20
2022-10-17T22:59:49.722Z,9.35
2022-10-17T23:05:21.599Z,9.50
2022-10-17T23:10:53.220Z,9.50
2022-10-17T23:13:16.778Z,1.00
2022-10-17T23:18:48.510Z,0.98
2022-10-17T23:24:19.859Z,1.31
2022-10-17T23:29:51.356Z,1.72
2022-10-17T23:35:22.994Z,1.76
2022-10-17T23:40:55.097Z,1.96
2022-10-17T23:46:26.720Z,2.38
2022-10-17T23:51:58.584Z,2.33
2022-10-17T23:57:30.639Z,2.29
